createdAt,value
2023-03-22T00:00:09.698Z,100552.78
2023-03-22T00:03:15.562Z,100553.64
2023-03-22T00:06:24.006Z,100558.22
2023-03-22T00:09:25.279Z,100560.72
2023-03-22T00:12:31.544Z,100559.31
2023-03-22T00:15:37.258Z,100551.25
2023-03-22T00:18:43.617Z,100549.09
2023-03-22T00:21:49.520Z,100554.27
2023-03-22T00:24:55.340Z,100548.70
2023-03-22T00:28:01.875Z,100554.44
2023-03-22T00:31:11.257Z,100555.16
2023-03-22T00:34:17.915Z,100553.65
2023-03-22T00:37:23.472Z,100558.89
2023-03-22T00:40:29.469Z,100559.97
2023-03-22T00:43:36.063Z,100558.68
2023-03-22T00:46:41.877Z,100568.57
2023-03-22T00:49:49.936Z,100560.76
2023-03-22T00:52:57.153Z,100564.34
2023-03-22T00:56:03.438Z,100558.63
2023-03-22T00:59:20.336Z,100559.50
2023-03-22T01:02:26.475Z,100556.92
2023-03-22T01:05:34.809Z,100557.13
2023-03-22T01:08:42.186Z,100568.79
2023-03-22T01:11:48.459Z,100570.94
2023-03-22T01:14:54.912Z,100566.31
2023-03-22T01:18:02.150Z,100569.81
2023-03-22T01:21:07.867Z,100574.03
2023-03-22T01:24:12.838Z,100571.60
2023-03-22T01:27:18.960Z,100572.81
2023-03-22T01:30:25.411Z,100576.37
2023-03-22T01:33:31.004Z,100577.23
2023-03-22T01:36:36.827Z,100578.25
2023-03-22T01:39:42.480Z,100574.81
2023-03-22T01:42:48.264Z,100575.83
2023-03-22T01:45:57.801Z,100579.18
2023-03-22T01:49:04.835Z,100590.05
2023-03-22T01:52:21.034Z,100583.11
2023-03-22T01:55:30.581Z,100589.27
2023-03-22T01:58:41.948Z,100589.77
2023-03-22T02:01:49.334Z,100599.70
2023-03-22T02:04:56.914Z,100594.13
2023-03-22T02:08:03.638Z,100593.06
2023-03-22T02:11:11.518Z,100594.33
2023-03-22T02:14:47.501Z,100591.32
2023-03-22T02:18:14.866Z,100589.56
2023-03-22T02:21:44.225Z,100588.55
2023-03-22T02:25:04.725Z,100585.68
2023-03-22T02:28:40.921Z,100587.38
2023-03-22T02:32:21.904Z,100585.53
2023-03-22T02:35:57.254Z,100586.26
2023-03-22T02:39:23.864Z,100596.06
2023-03-22T02:42:35.832Z,100597.77
2023-03-22T02:46:04.385Z,100598.98
2023-03-22T02:49:26.509Z,100611.80
2023-03-22T02:52:46.156Z,100607.43
2023-03-22T02:56:09.956Z,100613.88
2023-03-22T02:59:19.182Z,100610.64
2023-03-22T03:02:27.328Z,100610.44
2023-03-22T03:05:34.153Z,100613.16
2023-03-22T03:08:39.948Z,100621.02
2023-03-22T03:11:46.026Z,100625.10
2023-03-22T03:14:52.757Z,100626.75
2023-03-22T03:18:20.805Z,100627.04
2023-03-22T03:21:49.752Z,100625.59
2023-03-22T03:24:59.636Z,100625.67
2023-03-22T03:28:32.742Z,100632.53
2023-03-22T03:32:18.702Z,100625.97
2023-03-22T03:35:34.480Z,100636.89
2023-03-22T03:38:45.242Z,100633.39
2023-03-22T03:41:52.278Z,100630.88
2023-03-22T03:44:58.217Z,100641.98
2023-03-22T03:48:04.220Z,100643.98
2023-03-22T03:51:11.206Z,100643.84
2023-03-22T03:54:17.909Z,100652.15
2023-03-22T03:57:24.469Z,100655.44
2023-03-22T04:00:31.953Z,100652.14
2023-03-22T04:03:49.420Z,100659.58
2023-03-22T04:07:04.034Z,100656.37
2023-03-22T04:10:10.482Z,100656.37
2023-03-22T04:13:16.815Z,100654.28
2023-03-22T04:16:25.130Z,100660.73
2023-03-22T04:19:34.137Z,100667.09
2023-03-22T04:22:40.883Z,100659.51
2023-03-22T04:25:47.174Z,100666.51
2023-03-22T04:28:56.318Z,100679.82
2023-03-22T04:32:03.332Z,100679.62
2023-03-22T04:35:11.263Z,100682.78
2023-03-22T04:38:17.535Z,100690.80
2023-03-22T04:41:23.885Z,100694.93
2023-03-22T04:44:30.786Z,100698.23
2023-03-22T04:47:37.751Z,100704.59
2023-03-22T04:50:43.867Z,100698.71
2023-03-22T04:53:52.212Z,100696.91
2023-03-22T04:56:58.168Z,100702.78
2023-03-22T05:00:07.011Z,100704.08
2023-03-22T05:03:12.839Z,100706.02
2023-03-22T05:06:20.934Z,100711.45
2023-03-22T05:09:29.529Z,100717.59
2023-03-22T05:12:36.836Z,100722.82
2023-03-22T05:15:54.296Z,100720.52
2023-03-22T05:19:02.156Z,100719.93
2023-03-22T05:22:09.913Z,100729.59
2023-03-22T05:25:16.983Z,100736.86
2023-03-22T05:28:22.519Z,100723.70
2023-03-22T05:31:36.046Z,100722.31
2023-03-22T05:34:36.774Z,100719.62
2023-03-22T05:37:27.402Z,100718.81
2023-03-22T05:40:22.168Z,100720.56
2023-03-22T05:43:15.928Z,100717.26
2023-03-22T05:46:26.286Z,100729.73
2023-03-22T05:49:39.606Z,100732.33
2023-03-22T05:52:46.380Z,100732.16
2023-03-22T05:56:00.187Z,100729.90
2023-03-22T05:59:05.815Z,100726.90
2023-03-22T06:02:11.905Z,100733.74
2023-03-22T06:05:18.788Z,100731.08
2023-03-22T06:08:26.389Z,100726.16
2023-03-22T06:11:30.898Z,100732.17
2023-03-22T06:14:36.198Z,100734.21
2023-03-22T06:17:46.351Z,100735.30
2023-03-22T06:20:54.129Z,100733.67
2023-03-22T06:24:00.611Z,100733.73
2023-03-22T06:27:06.407Z,100734.48
2023-03-22T06:30:12.297Z,100734.87
2023-03-22T06:33:25.043Z,100733.88
2023-03-22T06:36:34.743Z,100732.37
2023-03-22T06:39:43.929Z,100731.55
2023-03-22T06:42:51.978Z,100731.89
2023-03-22T06:46:12.365Z,100734.86
2023-03-22T06:49:19.416Z,100731.63
2023-03-22T06:52:29.163Z,100728.27
2023-03-22T06:55:38.517Z,100740.77
2023-03-22T06:58:49.343Z,100737.37
2023-03-22T07:01:57.362Z,100730.02
2023-03-22T07:05:05.395Z,100738.45
2023-03-22T07:08:10.662Z,100741.56
2023-03-22T07:11:22.654Z,100736.97
2023-03-22T07:14:30.433Z,100740.58
2023-03-22T07:17:37.729Z,100753.11
2023-03-22T07:20:49.007Z,100754.80
2023-03-22T07:23:57.403Z,100747.95
2023-03-22T07:27:05.692Z,100752.94
2023-03-22T07:30:12.680Z,100748.47
2023-03-22T07:33:20.690Z,100745.03
2023-03-22T07:36:32.233Z,100740.92
2023-03-22T07:39:40.496Z,100738.17
2023-03-22T07:42:48.808Z,100737.63
2023-03-22T07:45:56.204Z,100740.34
2023-03-22T07:49:13.902Z,100740.65
2023-03-22T07:52:36.238Z,100738.89
2023-03-22T07:55:41.256Z,100736.95
2023-03-22T07:58:47.040Z,100741.86
2023-03-22T08:01:53.098Z,100739.41
2023-03-22T08:05:11.817Z,100749.80
2023-03-22T08:08:23.633Z,100747.83
2023-03-22T08:11:29.748Z,100752.45
2023-03-22T08:14:36.819Z,100754.77
2023-03-22T08:17:45.924Z,100752.51
2023-03-22T08:20:56.942Z,100755.34
2023-03-22T08:24:04.772Z,100751.70
2023-03-22T08:27:24.748Z,100746.83
2023-03-22T08:30:31.099Z,100744.52
2023-03-22T08:33:37.339Z,100740.52
2023-03-22T08:36:43.412Z,100740.77
2023-03-22T08:39:59.318Z,100742.57
2023-03-22T08:43:07.428Z,100741.28
2023-03-22T08:46:14.020Z,100730.69
2023-03-22T08:49:22.768Z,100731.05
2023-03-22T08:52:30.913Z,100736.08
2023-03-22T08:55:45.112Z,100733.20
2023-03-22T08:58:53.715Z,100738.27
2023-03-22T09:02:22.556Z,100731.66
2023-03-22T09:05:35.884Z,100733.25
2023-03-22T09:08:44.051Z,100737.67
2023-03-22T09:11:54.595Z,100737.49
2023-03-22T09:15:03.227Z,100738.05
2023-03-22T09:18:10.781Z,100735.30
2023-03-22T09:21:17.015Z,100737.75
2023-03-22T09:24:26.603Z,100741.72
2023-03-22T09:27:35.355Z,100740.92
2023-03-22T09:30:41.536Z,100736.51
2023-03-22T09:33:49.584Z,100728.51
2023-03-22T09:36:57.402Z,100728.58
2023-03-22T09:40:06.121Z,100723.91
2023-03-22T09:43:18.700Z,100723.39
2023-03-22T09:46:28.532Z,100731.45
2023-03-22T09:49:52.625Z,100717.96
2023-03-22T09:52:48.111Z,100724.91
2023-03-22T09:56:06.972Z,100734.73
2023-03-22T09:59:26.885Z,100725.89
2023-03-22T10:02:59.274Z,100721.08
2023-03-22T10:06:16.924Z,100716.50
2023-03-22T10:09:40.650Z,100719.72
2023-03-22T10:12:54.103Z,100711.78
2023-03-22T10:16:08.656Z,100714.79
2023-03-22T10:19:24.639Z,100708.59
2023-03-22T10:22:31.723Z,100702.92
2023-03-22T10:25:41.806Z,100706.78
2023-03-22T10:28:57.477Z,100708.49
2023-03-22T10:32:02.515Z,100707.57
2023-03-22T10:35:11.077Z,100714.00
2023-03-22T10:38:18.928Z,100697.95
2023-03-22T10:41:26.574Z,100695.61
2023-03-22T10:44:35.048Z,100697.77
2023-03-22T10:48:08.142Z,100698.52
2023-03-22T10:51:22.066Z,100700.45
2023-03-22T10:54:32.973Z,100693.19
2023-03-22T10:57:40.629Z,100690.84
2023-03-22T11:00:46.567Z,100692.75
2023-03-22T11:04:05.258Z,100696.33
2023-03-22T11:07:11.786Z,100689.30
2023-03-22T11:10:34.516Z,100690.09
2023-03-22T11:13:40.678Z,100686.55
2023-03-22T11:16:49.141Z,100690.08
2023-03-22T11:19:58.040Z,100687.94
2023-03-22T11:23:05.147Z,100684.60
2023-03-22T11:26:15.305Z,100675.84
2023-03-22T11:29:33.064Z,100677.68
2023-03-22T11:32:53.909Z,100681.74
2023-03-22T11:36:05.264Z,100686.39
2023-03-22T11:39:16.421Z,100677.78
2023-03-22T11:42:25.423Z,100682.00
2023-03-22T11:45:52.288Z,100677.60
2023-03-22T11:49:01.194Z,100682.52
2023-03-22T11:52:07.497Z,100679.59
2023-03-22T11:55:15.381Z,100678.42
2023-03-22T11:58:25.548Z,100681.42
2023-03-22T12:01:55.289Z,100673.86
2023-03-22T12:05:07.625Z,100669.59
2023-03-22T12:08:22.118Z,100672.05
2023-03-22T12:11:47.641Z,100668.42
2023-03-22T12:15:18.430Z,100663.41
2023-03-22T12:18:29.506Z,100661.11
2023-03-22T12:21:38.171Z,100661.05
2023-03-22T12:24:47.278Z,100659.23
2023-03-22T12:27:58.022Z,100674.25
2023-03-22T12:31:08.617Z,100667.59
2023-03-22T12:34:19.917Z,100663.08
2023-03-22T12:37:31.393Z,100662.20
2023-03-22T12:40:46.492Z,100660.32
2023-03-22T12:44:10.621Z,100654.60
2023-03-22T12:47:31.641Z,100652.02
2023-03-22T12:50:48.571Z,100649.11
2023-03-22T12:54:05.184Z,100649.38
2023-03-22T12:57:12.400Z,100652.56
2023-03-22T13:00:24.822Z,100650.80
2023-03-22T13:03:36.842Z,100647.61
2023-03-22T13:07:04.788Z,100648.13
2023-03-22T13:10:10.926Z,100648.66
2023-03-22T13:13:37.703Z,100646.86
2023-03-22T13:17:06.591Z,100645.89
2023-03-22T13:20:28.447Z,100645.36
2023-03-22T13:23:43.052Z,100646.34
2023-03-22T13:27:07.086Z,100652.56
2023-03-22T13:30:15.758Z,100645.96
2023-03-22T13:33:28.269Z,100645.88
2023-03-22T13:36:38.737Z,100642.20
2023-03-22T13:39:52.324Z,100640.73
2023-03-22T13:42:58.696Z,100639.22
2023-03-22T13:46:36.587Z,100642.20
2023-03-22T13:50:00.870Z,100640.84
2023-03-22T13:53:21.314Z,100647.66
2023-03-22T13:56:28.610Z,100650.26
2023-03-22T13:59:50.627Z,100648.97
2023-03-22T14:02:57.113Z,100649.41
2023-03-22T14:06:01.863Z,100642.19
2023-03-22T14:09:14.072Z,100642.35
2023-03-22T14:12:32.835Z,100649.96
2023-03-22T14:15:47.560Z,100645.64
2023-03-22T14:18:56.576Z,100658.45
